Sage, Wyoming
Current Conditions -  °F | °C
As of 1:35 PM on Thursday 20 Nov 2014 (Local Time) from KEMM Reporting Station
Scattered Clouds Scattered Clouds  
Wind Chill: 29°   Ceiling: Unl
Heat Index: 36°   Visibility: 10mi
Dew Point: 18°   Wind: 9mph
Humidity: 48%   Direction: 250°WSW
Pressure: 30.05"   Gusts: NA
Location:  41.81°N, 110.96°W
Report Text: KEMM 202035Z AUTO 25008KT 10SM SCT055 SCT065 SCT075 02/M08 A3005 RMK AO2
Loading
Personal Weather Stations






























Interactive Weather Map New forecast layout! Learn more

10-Day Weather Forecast

Advertisements
Track Severe Weather on mobile